Latest Weather Observations for Horsham AWS

IDV60801

Issued at 3:35 pm EST Saturday 19 April 2014 (issued every 30 minutes, with the page automatically refreshed every 10 minutes)

About weather observations | Map of weather stations | Latest weather observations for VIC | Other Formats
Station Details ID: 079100 Name: HORSHAM AERODROME Lat: -36.67 Lon: 142.17 Height: 133.8 m
Data from the previous 72 hours. | See also: Recent months at Horsham AWS
Date/Time
EST
Temp
°C
App
Temp
°C
Dew
Point
Rel
Hum
%
Delta-T
°C
Wind Press
QNH
hPa
Press
MSL
hPa
Rain
since 9 am
mm
Dir
 
Spd
km/h
Gust
km/h
Spd
kts
Gust
kts
19/03:30pm 15.4 11.2 3.9 46 5.3 WSW 15 20 8 11 1019.3 - 0.0
19/03:00pm 15.2 11.5 4.3 48 5.1 WSW 13 20 7 11 1019.5 1019.5 0.0
19/02:30pm 15.2 11.4 4.0 47 5.2 W 13 19 7 10 1019.7 - 0.0
19/02:00pm 14.9 10.7 4.0 48 5.0 WSW 15 19 8 10 1019.9 - 0.0
19/01:30pm 14.7 10.2 4.4 50 4.8 W 17 22 9 12 1020.3 - 0.0
19/01:00pm 14.6 10.2 4.9 52 4.6 WSW 17 20 9 11 1020.8 - 0.0
19/12:30pm 14.2 10.2 4.8 53 4.4 WSW 15 20 8 11 1021.3 - 0.0
19/12:00pm 14.0 10.0 4.9 54 4.2 SW 15 22 8 12 1021.9 1021.8 0.0
19/11:30am 14.5 11.9 6.3 58 4.0 WSW 9 17 5 9 1022.0 - 0.0
19/11:00am 14.0 11.1 6.4 60 3.7 SSW 11 17 6 9 1022.5 - 0.0
19/10:30am 13.2 10.4 6.8 65 3.1 SSW 11 17 6 9 1022.5 - 0.0
19/10:00am 12.4 9.6 7.1 70 2.6 SSW 11 17 6 9 1022.8 - 0.0
19/09:30am 11.4 7.8 6.9 74 2.1 SW 15 17 8 9 1022.9 - 0.0
19/09:00am 10.4 7.2 6.9 79 1.7 WSW 13 17 7 9 1022.9 1022.8 0.0
19/08:30am 9.0 5.7 6.4 84 1.2 WSW 13 15 7 8 1022.6 - 0.0
19/08:00am 8.3 6.1 6.1 86 1.0 WSW 7 11 4 6 1022.4 - 0.0
19/07:30am 7.7 5.4 5.7 87 0.9 WSW 7 9 4 5 1022.0 - 0.0
19/07:00am 7.5 4.8 5.5 87 0.9 WSW 9 13 5 7 1021.9 - 0.0
19/06:30am 7.4 4.3 5.5 88 0.9 WSW 11 13 6 7 1021.7 - 0.0
19/06:00am 7.5 4.4 5.6 88 0.9 W 11 15 6 8 1021.6 1021.6 0.0
19/05:30am 7.3 4.3 5.8 90 0.7 W 11 15 6 8 1021.5 - 0.0
19/05:00am 5.1 1.7 4.1 93 0.4 W 11 15 6 8 1021.2 - 0.0
19/04:30am 6.1 3.2 4.9 92 0.5 W 9 13 5 7 1021.1 - 0.0
19/04:00am 5.8 2.9 4.6 92 0.5 WSW 9 13 5 7 1021.1 - 0.0
19/03:30am 5.6 2.6 4.2 91 0.6 SW 9 11 5 6 1021.1 - 0.0
19/03:00am 5.4 2.0 4.1 91 0.6 WSW 11 13 6 7 1021.3 1021.3 0.0
19/02:30am 5.8 2.8 4.3 90 0.6 SW 9 11 5 6 1021.5 - 0.0
19/02:00am 6.1 2.7 4.1 87 0.9 SW 11 15 6 8 1021.7 - 0.0
19/01:30am 6.5 3.2 4.3 86 1.0 WSW 11 13 6 7 1022.0 - 0.0
19/01:00am 6.9 3.6 4.7 86 1.0 SW 11 13 6 7 1022.0 - 0.0
19/12:30am 7.3 3.3 4.9 85 1.1 SW 15 17 8 9 1022.0 - 0.0
19/12:00am 7.2 3.6 4.9 85 1.0 SW 13 15 7 8 1021.9 1021.8 0.0
 
Date/Time
EST
Temp
°C
App
Temp
°C
Dew
Point
Rel
Hum
%
Delta-T
°C
Wind Press
QNH
hPa
Press
MSL
hPa
Rain
since 9 am
mm
Dir
 
Spd
km/h
Gust
km/h
Spd
kts
Gust
kts
18/11:30pm 7.5 4.6 4.8 83 1.2 WSW 9 13 5 7 1021.9 - 0.0
18/11:00pm 8.1 4.9 4.9 80 1.4 SW 11 13 6 7 1022.2 - 0.0
18/10:30pm 8.1 4.8 4.7 79 1.5 SSW 11 13 6 7 1022.2 - 0.0
18/10:00pm 9.2 4.8 5.0 75 1.9 SSW 17 19 9 10 1022.1 - 0.0
18/09:30pm 10.1 5.4 5.1 71 2.3 SSW 19 20 10 11 1021.9 - 0.0
18/09:00pm 10.5 6.2 5.1 69 2.5 SSW 17 20 9 11 1021.9 1021.8 0.0
18/08:30pm 11.1 6.3 4.8 65 2.9 SSW 19 22 10 12 1021.6 - 0.0
18/08:00pm 11.0 7.2 4.0 62 3.1 SW 13 15 7 8 1021.3 - 0.0
18/07:30pm 12.0 7.1 4.0 58 3.6 SSW 19 22 10 12 1021.2 - 0.0
18/07:00pm 12.8 7.9 4.3 56 3.9 SSW 19 22 10 12 1020.9 - 0.0
18/06:30pm 13.5 8.4 4.1 53 4.3 SSW 20 24 11 13 1020.5 - 0.0
18/06:00pm 15.0 8.1 4.7 50 4.8 SSW 30 35 16 19 1020.2 1020.2 0.0
18/05:30pm 16.3 8.6 3.4 42 6.0 SSW 33 43 18 23 1019.8 - 0.0
18/05:00pm 17.4 9.5 2.2 36 6.9 SSW 33 41 18 22 1019.5 - 0.0
18/04:30pm 17.9 10.6 2.2 35 7.2 SSW 30 39 16 21 1019.2 - 0.0
18/04:00pm 18.1 9.3 1.6 33 7.5 SSW 37 50 20 27 1019.0 - 0.0
18/03:38pm 18.8 10.9 0.9 30 8.0 SW 32 52 17 28 1018.9 - 0.0
18/03:30pm 18.9 10.0 0.5 29 8.2 SSW 37 50 20 27 1018.8 - 0.0
18/03:18pm 19.0 10.7 2.4 33 7.7 SSW 35 54 19 29 1018.6 - 0.0
18/03:00pm 19.0 10.6 1.5 31 7.9 SW 35 44 19 24 1018.5 1018.4 0.0
18/02:30pm 18.6 9.7 5.1 41 6.6 SSW 41 54 22 29 1018.5 - 0.0
18/02:00pm 19.0 11.7 4.7 39 6.9 SW 32 56 17 30 1018.4 - 0.0
18/01:49pm 19.2 11.9 5.3 40 6.8 SW 33 43 18 23 1018.3 - 0.0
18/01:30pm 17.9 9.7 4.5 41 6.4 SSW 37 50 20 27 1018.3 - 0.0
18/01:23pm 18.1 10.1 5.7 44 6.1 S 37 44 20 24 1018.3 - 0.0
18/01:00pm 18.8 10.9 4.2 38 7.0 SW 35 50 19 27 1018.5 - 0.0
18/12:30pm 18.2 10.8 5.1 42 6.4 SW 33 48 18 26 1018.7 - 0.0
18/12:00pm 18.3 9.6 4.1 39 6.7 SSW 39 50 21 27 1018.8 1018.7 0.0
18/11:30am 18.2 11.8 8.7 54 5.0 SW 32 43 17 23 1018.8 - 0.0
18/11:00am 16.7 9.7 9.9 64 3.6 SSW 37 46 20 25 1018.8 - 0.0
18/10:30am 15.7 9.0 10.9 73 2.6 SSW 37 44 20 24 1018.7 - 0.0
18/10:26am 15.3 8.7 11.5 78 2.1 SSW 37 48 20 26 1018.7 - 0.0
18/10:01am 15.5 10.6 12.4 82 1.7 WSW 30 39 16 21 1018.4 - 0.0
18/10:00am 15.4 10.4 12.3 82 1.7 WSW 30 39 16 21 1018.4 - 0.0
18/09:48am 15.5 11.0 12.6 83 1.6 WSW 28 37 15 20 1018.4 - 0.0
18/09:30am 15.5 11.5 13.0 85 1.4 WSW 26 35 14 19 1018.1 - 0.0
18/09:00am 15.6 11.7 12.2 80 1.9 W 24 35 13 19 1018.0 1017.9 0.0
18/08:30am 15.5 12.0 12.1 80 1.9 W 22 28 12 15 1017.7 - 0.0
18/08:00am 13.6 11.2 11.3 86 1.2 WNW 15 19 8 10 1017.6 - 0.0
18/07:30am 13.1 10.1 10.8 86 1.2 WNW 17 19 9 10 1017.3 - 0.0
18/07:00am 12.0 9.2 9.9 87 1.1 NW 15 17 8 9 1016.9 - 0.0
18/06:30am 10.8 7.7 8.9 88 0.9 NW 15 19 8 10 1016.8 - 0.0
18/06:00am 10.2 7.7 8.1 87 1.0 NNW 11 13 6 7 1016.6 1016.5 0.0
18/05:30am 10.6 8.1 8.4 86 1.1 NNW 11 13 6 7 1016.8 - 0.0
18/05:00am 12.1 10.3 9.3 83 1.4 N 9 9 5 5 1016.7 - 0.0
18/04:30am 12.6 10.8 9.4 81 1.6 N 9 11 5 6 1016.8 - 0.0
18/04:00am 12.7 10.9 9.5 81 1.6 NNW 9 11 5 6 1016.9 - 0.0
18/03:30am 12.7 11.2 9.3 80 1.7 N 7 9 4 5 1017.0 - 0.0
18/03:00am 12.6 10.7 9.2 80 1.7 NNW 9 9 5 5 1017.1 1017.0 0.0
18/02:30am 12.4 10.6 9.4 82 1.5 N 9 11 5 6 1017.2 - 0.0
18/02:00am 11.6 10.1 9.0 84 1.3 N 7 9 4 5 1017.5 - 0.0
18/01:30am 11.0 8.9 8.4 84 1.3 N 9 11 5 6 1017.5 - 0.0
18/01:00am 9.7 9.1 7.3 85 1.1 CALM 0 0 0 0 1017.9 - 0.0
18/12:30am 9.7 9.0 7.0 83 1.3 CALM 0 0 0 0 1018.1 - 0.0
18/12:00am 9.4 8.6 6.3 81 1.4 CALM 0 0 0 0 1018.5 1018.4 0.0
 
Date/Time
EST
Temp
°C
App
Temp
°C
Dew
Point
Rel
Hum
%
Delta-T
°C
Wind Press
QNH
hPa
Press
MSL
hPa
Rain
since 9 am
mm
Dir
 
Spd
km/h
Gust
km/h
Spd
kts
Gust
kts
17/11:30pm 11.6 9.8 7.1 74 2.2 SW 6 7 3 4 1018.9 - 0.0
17/11:00pm 13.4 11.5 7.6 68 2.9 SW 7 7 4 4 1019.0 - 0.0
17/10:30pm 14.2 12.0 7.9 66 3.1 SW 9 9 5 5 1019.3 - 0.0
17/10:00pm 14.4 12.3 8.1 66 3.2 SW 9 11 5 6 1019.5 - 0.0
17/09:30pm 15.0 13.3 8.3 64 3.4 W 7 11 4 6 1019.5 - 0.0
17/09:00pm 15.5 13.5 8.5 63 3.6 SW 9 13 5 7 1019.6 1019.6 0.0
17/08:30pm 15.9 13.4 8.4 61 3.8 WSW 11 13 6 7 1019.4 - 0.0
17/08:00pm 16.3 12.7 8.3 59 4.1 W 17 22 9 12 1019.3 - 0.0
17/07:30pm 17.2 12.3 8.6 57 4.4 W 24 35 13 19 1019.1 - 0.0
17/07:20pm 17.6 11.7 9.0 57 4.5 W 30 41 16 22 1019.0 - 0.0
17/07:00pm 16.1 13.6 8.1 59 4.1 NW 11 11 6 6 1018.7 - 0.0
17/06:30pm 17.6 15.1 8.2 54 4.8 NW 11 13 6 7 1018.5 - 0.0
17/06:00pm 18.7 15.8 8.1 50 5.5 WNW 13 15 7 8 1018.3 1018.2 0.0
17/05:30pm 21.1 17.0 8.0 43 6.9 WNW 19 24 10 13 1018.2 - 0.0
17/05:00pm 22.0 17.7 7.8 40 7.4 WNW 20 24 11 13 1018.1 - 0.0
17/04:30pm 23.0 18.6 6.7 35 8.4 NW 19 28 10 15 1018.2 - 0.0
17/04:00pm 23.8 19.4 6.6 33 8.9 WNW 19 26 10 14 1018.2 - 0.0
17/03:30pm 23.2 17.9 5.1 31 9.1 NNW 22 32 12 17 1018.3 - 0.0
17/03:00pm 23.3 20.0 6.6 34 8.6 SW 13 22 7 12 1018.5 1018.4 0.0
17/02:30pm 22.9 19.9 6.2 34 8.6 NNW 11 19 6 10 1018.9 - 0.0
17/02:00pm 22.5 19.4 5.4 33 8.6 NNW 11 17 6 9 1019.1 - 0.0
17/01:30pm 22.5 19.4 5.4 33 8.6 NNW 11 20 6 11 1019.4 - 0.0
17/01:00pm 22.0 19.2 5.0 33 8.5 NNW 9 20 5 11 1019.8 - 0.0
17/12:30pm 21.6 19.4 6.3 37 7.8 WNW 7 13 4 7 1020.3 - 0.0
17/12:00pm 20.9 18.7 6.1 38 7.4 NW 7 9 4 5 1020.8 1020.8 0.0
17/11:30am 20.1 17.9 5.4 38 7.3 ESE 6 11 3 6 1021.0 - 0.0
17/11:00am 19.4 18.5 9.3 52 5.4 SW 4 7 2 4 1021.2 - 0.0
17/10:30am 19.0 18.7 10.0 56 4.8 E 2 7 1 4 1021.3 - 0.0
17/10:00am 17.5 16.5 10.4 63 3.8 E 6 9 3 5 1021.5 - 0.0
17/09:30am 15.1 14.0 10.5 74 2.4 SE 7 9 4 5 1021.5 - 0.0
17/09:00am 12.9 12.3 11.6 92 0.7 WSW 6 6 3 3 1021.6 1021.6 0.0
17/08:00am 8.9 6.9 8.6 98 0.1 WSW 9 11 5 6 1021.1 - 0.0
17/07:30am 7.7 5.0 7.3 97 0.2 SW 11 13 6 7 1020.6 - 0.0
17/07:00am 8.0 5.4 7.6 97 0.2 SW 11 13 6 7 1020.3 - 0.0
17/06:30am 8.2 6.0 7.8 97 0.2 S 9 11 5 6 1020.1 - 0.0
17/06:00am 7.8 4.0 7.4 97 0.2 E 17 17 9 9 1019.6 1019.6 0.0
17/05:30am 8.0 5.4 7.6 97 0.2 ESE 11 11 6 6 1019.7 - 0.0
17/05:00am 7.5 5.1 6.9 96 0.3 SE 9 11 5 6 1019.6 - 0.0
17/04:30am 7.8 5.4 7.2 96 0.3 ESE 9 9 5 5 1019.4 - 0.0
17/04:00am 7.8 6.0 7.1 95 0.3 SE 6 7 3 4 1019.2 - 0.0
17/03:30am 10.0 8.8 9.5 97 0.3 SSE 6 9 3 5 1019.3 - 0.0
17/03:00am 8.5 6.3 7.9 96 0.3 SE 9 11 5 6 1019.3 1019.3 0.0
17/02:30am 8.4 5.8 7.6 95 0.4 S 11 11 6 6 1019.4 - 0.0
17/02:00am 9.8 7.4 8.7 93 0.5 S 11 13 6 7 1019.5 - 0.0
17/01:30am 10.9 8.7 9.5 91 0.7 SW 11 11 6 6 1019.6 - 0.0
17/01:00am 11.4 8.9 9.7 89 0.9 SW 13 13 7 7 1019.6 - 0.0
17/12:30am 11.8 9.7 9.7 87 1.1 SW 11 13 6 7 1019.6 - 0.0
17/12:00am 11.8 9.2 9.2 84 1.3 SW 13 15 7 8 1019.7 1019.7 0.0
 
Date/Time
EST
Temp
°C
App
Temp
°C
Dew
Point
Rel
Hum
%
Delta-T
°C
Wind Press
QNH
hPa
Press
MSL
hPa
Rain
since 9 am
mm
Dir
 
Spd
km/h
Gust
km/h
Spd
kts
Gust
kts
16/11:30pm 12.9 10.3 9.2 78 1.9 WSW 13 15 7 8 1019.9 - 0.0
16/11:00pm 13.5 10.9 9.2 75 2.2 W 13 17 7 9 1020.0 - 0.0
16/10:30pm 13.7 11.2 9.6 76 2.1 W 13 15 7 8 1019.9 - 0.0
16/10:00pm 12.8 12.3 9.3 79 1.8 SE 2 7 1 4 1019.6 - 0.0
16/09:30pm 14.1 14.1 9.9 76 2.2 CALM 0 0 0 0 1019.5 - 0.0
16/09:00pm 15.3 14.0 9.2 67 3.1 SE 6 7 3 4 1019.3 1019.3 0.0
16/08:30pm 15.8 14.5 9.9 68 3.1 SE 7 9 4 5 1018.9 - 0.0
16/08:00pm 16.7 14.7 10.3 66 3.4 SSE 11 13 6 7 1018.8 - 0.0
16/07:30pm 17.2 15.1 8.1 55 4.7 S 9 11 5 6 1019.0 - 0.0
16/07:00pm 18.7 16.6 8.1 50 5.5 SSW 9 9 5 5 1019.0 - 0.0
16/06:30pm 19.6 17.4 8.0 47 6.0 W 9 11 5 6 1019.3 - 0.0
16/06:00pm 19.8 17.9 7.5 45 6.3 W 7 9 4 5 1018.8 1018.7 0.0
16/05:30pm 20.5 17.9 7.8 44 6.6 WNW 11 13 6 7 1018.7 - 0.0
16/05:00pm 21.4 16.9 6.9 39 7.5 WNW 20 28 11 15 1018.6 - 0.0
16/04:30pm 22.4 19.1 6.6 36 8.1 W 13 22 7 12 1018.3 - 0.0
16/04:00pm 21.7 17.9 7.5 40 7.4 WNW 17 24 9 13 1018.3 - 0.0

Other Formats:

Comma delimited format used in spreadsheet applications
http://www.bom.gov.au/fwo/IDV60801/IDV60801.95839.axf

JavaScript Object Notation format (JSON) in row-major order
http://www.bom.gov.au/fwo/IDV60801/IDV60801.95839.json